createdAt,value
2023-02-27T00:00:20.040Z,0.97
2023-02-27T00:03:23.628Z,0.94
2023-02-27T00:06:06.556Z,0.96
2023-02-27T00:08:39.375Z,1.01
2023-02-27T00:11:18.623Z,1.06
2023-02-27T00:14:03.660Z,1.10
2023-02-27T00:16:51.259Z,1.12
2023-02-27T00:19:25.188Z,1.13
2023-02-27T00:21:55.898Z,1.16
2023-02-27T00:24:29.725Z,1.18
2023-02-27T00:27:03.375Z,1.20
2023-02-27T00:29:39.912Z,1.21
2023-02-27T00:32:18.587Z,1.20
2023-02-27T00:34:56.814Z,1.18
2023-02-27T00:37:27.766Z,1.15
2023-02-27T00:40:06.021Z,1.16
2023-02-27T00:42:43.430Z,1.17
2023-02-27T00:45:27.536Z,1.18
2023-02-27T00:48:04.650Z,1.17
2023-02-27T00:50:39.965Z,1.16
2023-02-27T00:53:23.229Z,1.16
2023-02-27T00:56:02.410Z,1.16
2023-02-27T00:59:02.191Z,1.13
2023-02-27T01:01:40.034Z,1.13
2023-02-27T01:04:21.575Z,1.14
2023-02-27T01:07:04.005Z,1.16
2023-02-27T01:09:41.718Z,1.16
2023-02-27T01:12:17.043Z,1.15
2023-02-27T01:14:48.053Z,1.14
2023-02-27T01:17:21.751Z,1.13
2023-02-27T01:19:54.859Z,1.14
2023-02-27T01:22:31.256Z,1.16
2023-02-27T01:25:09.510Z,1.17
2023-02-27T01:27:50.654Z,1.19
2023-02-27T01:30:25.086Z,1.20
2023-02-27T01:33:06.604Z,1.18
2023-02-27T01:35:45.749Z,1.16
2023-02-27T01:38:24.196Z,1.15
2023-02-27T01:41:07.727Z,1.14
2023-02-27T01:44:03.390Z,1.16
2023-02-27T01:46:48.256Z,1.17
2023-02-27T01:49:33.902Z,1.17
2023-02-27T01:52:18.797Z,1.18
2023-02-27T01:55:02.056Z,1.17
2023-02-27T01:57:42.544Z,1.13
2023-02-27T02:00:18.304Z,1.12
2023-02-27T02:03:10.533Z,1.12
2023-02-27T02:05:50.856Z,1.11
2023-02-27T02:08:29.342Z,1.12
2023-02-27T02:11:06.171Z,1.13
2023-02-27T02:13:50.154Z,1.12
2023-02-27T02:17:05.890Z,1.13
2023-02-27T02:20:34.627Z,1.06
2023-02-27T02:23:30.885Z,1.02
2023-02-27T02:26:34.344Z,0.99
2023-02-27T02:29:57.002Z,0.96
2023-02-27T02:33:31.157Z,0.93
2023-02-27T02:36:55.344Z,0.92
2023-02-27T02:39:58.080Z,0.91
2023-02-27T02:43:24.887Z,0.91
2023-02-27T02:46:19.042Z,0.91
2023-02-27T02:49:11.105Z,0.94
2023-02-27T02:52:35.329Z,0.95
2023-02-27T02:55:44.979Z,0.92
2023-02-27T02:58:32.126Z,0.89
2023-02-27T03:01:27.297Z,0.90
2023-02-27T03:04:48.154Z,0.90
2023-02-27T03:07:33.796Z,0.88
2023-02-27T03:10:22.394Z,0.86
2023-02-27T03:13:03.624Z,0.85
2023-02-27T03:15:48.988Z,0.86
2023-02-27T03:18:33.944Z,0.87
2023-02-27T03:21:21.387Z,0.87
2023-02-27T03:24:12.748Z,0.85
2023-02-27T03:26:51.022Z,0.84
2023-02-27T03:29:56.897Z,0.85
2023-02-27T03:32:52.956Z,0.84
2023-02-27T03:35:50.117Z,0.81
2023-02-27T03:38:40.348Z,0.78
2023-02-27T03:41:44.188Z,0.77
2023-02-27T03:45:15.462Z,0.78
2023-02-27T03:47:52.031Z,0.77
2023-02-27T03:50:42.367Z,0.78
2023-02-27T03:53:54.601Z,0.72
2023-02-27T03:56:54.368Z,0.70
2023-02-27T03:59:46.168Z,0.72
2023-02-27T04:02:24.775Z,0.74
2023-02-27T04:05:03.360Z,0.75
2023-02-27T04:08:27.846Z,0.74
2023-02-27T04:11:25.605Z,0.72
2023-02-27T04:14:57.271Z,0.71
2023-02-27T04:17:31.541Z,0.69
2023-02-27T04:20:15.315Z,0.69
2023-02-27T04:23:00.877Z,0.72
2023-02-27T04:25:51.918Z,0.73
2023-02-27T04:29:08.094Z,0.72
2023-02-27T04:32:27.930Z,0.68
2023-02-27T04:35:41.746Z,0.66
2023-02-27T04:38:39.719Z,0.65
2023-02-27T04:41:29.550Z,0.64
2023-02-27T04:44:17.802Z,0.65
2023-02-27T04:46:57.830Z,0.62
2023-02-27T04:50:05.986Z,0.59
2023-02-27T04:53:05.299Z,0.57
2023-02-27T04:55:59.346Z,0.58
2023-02-27T04:58:53.189Z,0.59
2023-02-27T05:01:47.486Z,0.58
2023-02-27T05:04:53.120Z,0.56
2023-02-27T05:07:41.902Z,0.56
2023-02-27T05:10:38.350Z,0.59
2023-02-27T05:13:26.600Z,0.60
2023-02-27T05:16:24.041Z,0.59
2023-02-27T05:19:04.060Z,0.56
2023-02-27T05:21:59.392Z,0.55
2023-02-27T05:25:04.151Z,0.54
2023-02-27T05:27:47.420Z,0.51
2023-02-27T05:30:56.733Z,0.46
2023-02-27T05:34:16.943Z,0.45
2023-02-27T05:37:20.849Z,0.44
2023-02-27T05:40:08.716Z,0.45
2023-02-27T05:42:46.980Z,0.44
2023-02-27T05:45:42.591Z,0.46
2023-02-27T05:48:48.051Z,0.47
2023-02-27T05:51:37.353Z,0.46
2023-02-27T05:54:55.354Z,0.45
2023-02-27T06:01:08.057Z,0.43
2023-02-27T06:03:52.694Z,0.45
2023-02-27T06:06:37.199Z,0.44
2023-02-27T06:09:11.947Z,0.45
2023-02-27T06:11:55.059Z,0.46
2023-02-27T06:14:30.737Z,0.45
2023-02-27T06:17:13.068Z,0.41
2023-02-27T06:19:47.242Z,0.39
2023-02-27T06:22:22.059Z,0.40
2023-02-27T06:24:57.082Z,0.41
2023-02-27T06:27:41.736Z,0.46
2023-02-27T06:30:26.886Z,0.52
2023-02-27T06:33:17.423Z,0.57
2023-02-27T06:36:02.372Z,0.58
2023-02-27T06:38:41.259Z,0.62
2023-02-27T06:41:21.060Z,0.62
2023-02-27T06:43:57.202Z,0.64
2023-02-27T06:46:36.687Z,0.69
2023-02-27T06:49:07.684Z,0.75
2023-02-27T06:51:52.349Z,0.74
2023-02-27T06:54:29.485Z,0.74
2023-02-27T06:57:05.563Z,0.76
2023-02-27T06:59:36.154Z,0.78
2023-02-27T07:02:24.498Z,0.83
2023-02-27T07:05:10.434Z,0.89
2023-02-27T07:07:53.463Z,0.94
2023-02-27T07:10:49.412Z,0.93
2023-02-27T07:13:58.017Z,0.87
2023-02-27T07:16:46.730Z,0.87
2023-02-27T07:20:20.964Z,0.92
2023-02-27T07:24:01.640Z,0.93
2023-02-27T07:27:03.793Z,0.95
2023-02-27T07:29:42.056Z,1.04
2023-02-27T07:32:45.820Z,1.15
2023-02-27T07:35:51.056Z,1.26
2023-02-27T07:38:32.774Z,1.38
2023-02-27T07:41:30.365Z,1.49
2023-02-27T07:44:19.871Z,1.53
2023-02-27T07:47:24.649Z,1.53
2023-02-27T07:50:14.397Z,1.60
2023-02-27T07:53:28.914Z,1.54
2023-02-27T07:56:39.435Z,1.57
2023-02-27T07:59:51.257Z,1.60
2023-02-27T08:02:55.727Z,1.62
2023-02-27T08:05:43.899Z,1.65
2023-02-27T08:08:51.734Z,1.72
2023-02-27T08:11:54.645Z,1.78
2023-02-27T08:14:37.465Z,1.78
2023-02-27T08:17:39.206Z,1.76
2023-02-27T08:20:26.216Z,1.85
2023-02-27T08:23:33.185Z,1.97
2023-02-27T08:26:55.402Z,1.98
2023-02-27T08:30:14.549Z,1.95
2023-02-27T08:40:33.090Z,2.33
2023-02-27T08:43:43.949Z,2.41
2023-02-27T08:47:31.254Z,2.45
2023-02-27T08:51:02.732Z,2.34
2023-02-27T08:54:40.318Z,2.22
2023-02-27T08:58:25.886Z,2.20
2023-02-27T09:01:32.222Z,2.16
2023-02-27T09:04:34.171Z,2.14
2023-02-27T09:07:22.458Z,2.10
2023-02-27T09:10:17.435Z,2.11
2023-02-27T09:13:05.393Z,2.09
2023-02-27T09:15:49.661Z,2.10
2023-02-27T09:19:06.811Z,2.05
2023-02-27T09:21:58.107Z,1.99
2023-02-27T09:25:01.736Z,2.02
2023-02-27T09:28:31.932Z,2.00
2023-02-27T09:34:24.593Z,2.07
2023-02-27T09:37:44.346Z,2.17
2023-02-27T09:40:38.885Z,2.29
2023-02-27T09:43:52.143Z,2.44
2023-02-27T09:46:42.235Z,2.55
2023-02-27T09:49:35.711Z,2.63
2023-02-27T09:52:24.519Z,2.76
2023-02-27T09:55:25.662Z,2.88
2023-02-27T09:58:20.836Z,2.86
2023-02-27T10:04:37.958Z,2.87
2023-02-27T10:07:51.645Z,3.14
2023-02-27T10:11:14.174Z,3.51
2023-02-27T10:14:33.042Z,3.96
2023-02-27T10:17:53.471Z,4.27
2023-02-27T10:20:51.600Z,4.79
2023-02-27T10:24:11.072Z,5.49
2023-02-27T10:27:08.575Z,6.25
2023-02-27T10:30:28.332Z,6.98
2023-02-27T10:33:28.081Z,7.36
2023-02-27T10:36:30.614Z,7.00
2023-02-27T10:39:34.910Z,6.72
2023-02-27T10:42:19.542Z,6.37
2023-02-27T10:45:04.093Z,5.88
2023-02-27T10:48:09.443Z,5.52
2023-02-27T10:51:21.779Z,5.26
2023-02-27T10:54:40.474Z,5.22
2023-02-27T10:58:03.836Z,6.68
2023-02-27T11:01:11.531Z,7.74
2023-02-27T11:07:05.771Z,8.94
2023-02-27T11:10:19.501Z,9.15
2023-02-27T11:13:26.690Z,8.57
2023-02-27T11:16:57.831Z,8.31
2023-02-27T11:19:51.409Z,8.84
2023-02-27T11:26:54.806Z,7.24
2023-02-27T11:30:02.754Z,6.44
2023-02-27T11:34:04.305Z,5.88
2023-02-27T11:41:05.887Z,4.94
2023-02-27T11:44:50.908Z,4.40
2023-02-27T11:48:00.950Z,3.98
2023-02-27T11:51:55.602Z,3.71
2023-02-27T11:55:29.301Z,3.42
2023-02-27T11:58:50.867Z,3.20
2023-02-27T12:02:23.588Z,3.10
2023-02-27T12:06:12.526Z,3.06
2023-02-27T12:10:46.425Z,3.04
2023-02-27T12:14:39.185Z,3.10
2023-02-27T12:17:54.304Z,3.18
2023-02-27T12:23:52.135Z,3.27
2023-02-27T12:26:50.607Z,3.34
2023-02-27T12:29:40.716Z,3.35
2023-02-27T12:32:38.837Z,3.40
2023-02-27T12:39:38.377Z,3.55
2023-02-27T12:58:43.331Z,3.97
2023-02-27T13:02:24.478Z,3.88
2023-02-27T13:06:50.872Z,3.87
2023-02-27T13:10:56.638Z,3.82
2023-02-27T13:14:06.345Z,3.77
2023-02-27T13:17:13.702Z,3.82
2023-02-27T13:19:53.289Z,3.91
2023-02-27T13:22:49.089Z,3.96
2023-02-27T13:25:57.793Z,3.95
2023-02-27T13:29:14.947Z,3.92
2023-02-27T13:33:11.654Z,3.70
2023-02-27T13:37:18.993Z,3.47
2023-02-27T13:41:35.864Z,3.40
2023-02-27T13:48:40.079Z,3.31
2023-02-27T13:52:06.227Z,3.34
2023-02-27T13:55:55.619Z,3.36
2023-02-27T14:00:02.302Z,3.29
2023-02-27T14:04:35.503Z,3.16
2023-02-27T14:19:10.332Z,2.78
2023-02-27T15:31:33.298Z,2.67
2023-02-27T15:34:41.765Z,2.65
2023-02-27T15:38:09.200Z,2.61
2023-02-27T15:41:29.305Z,2.58
2023-02-27T15:45:24.694Z,2.55
2023-02-27T15:48:34.434Z,2.52
2023-02-27T15:51:22.880Z,2.52
2023-02-27T15:54:19.638Z,2.48
2023-02-27T15:57:34.855Z,2.42
2023-02-27T16:00:26.016Z,2.38
2023-02-27T16:03:43.225Z,2.34
2023-02-27T16:06:39.931Z,2.33
2023-02-27T16:09:51.675Z,2.30
2023-02-27T16:17:02.762Z,2.23
2023-02-27T16:20:40.134Z,2.21
2023-02-27T16:24:59.544Z,2.18
2023-02-27T16:27:17.268Z,2.20
2023-02-27T16:30:48.908Z,2.22
2023-02-27T16:33:43.208Z,2.20
2023-02-27T16:36:38.967Z,2.16
2023-02-27T16:39:29.104Z,2.15
2023-02-27T16:42:27.913Z,2.16
2023-02-27T16:45:53.288Z,2.14
2023-02-27T16:48:50.935Z,2.11
2023-02-27T16:58:45.354Z,2.04
2023-02-27T17:01:47.857Z,2.01
2023-02-27T17:08:57.432Z,2.00
2023-02-27T17:11:33.897Z,2.00
2023-02-27T17:14:04.586Z,2.01
2023-02-27T17:16:33.557Z,2.03
2023-02-27T17:19:01.330Z,2.05
2023-02-27T17:21:30.533Z,2.07
2023-02-27T17:23:59.701Z,2.07
2023-02-27T17:26:29.081Z,2.05
2023-02-27T17:28:58.706Z,2.05
2023-02-27T17:31:27.525Z,2.06
2023-02-27T17:33:56.368Z,2.09
2023-02-27T17:36:26.155Z,2.11
2023-02-27T17:39:02.709Z,2.12
2023-02-27T17:41:33.083Z,2.14
2023-02-27T17:44:02.296Z,2.14
2023-02-27T17:46:31.747Z,2.13
2023-02-27T17:49:01.197Z,2.13
2023-02-27T17:51:31.825Z,2.11
2023-02-27T17:54:03.183Z,2.09
2023-02-27T17:56:33.386Z,2.06
2023-02-27T17:59:03.614Z,2.04
2023-02-27T18:01:32.534Z,2.02
2023-02-27T18:04:01.418Z,2.01
2023-02-27T18:06:30.587Z,1.99
2023-02-27T18:08:59.736Z,1.98
2023-02-27T18:11:28.707Z,1.96
2023-02-27T18:13:57.912Z,1.93
2023-02-27T18:16:27.117Z,1.92
2023-02-27T18:18:56.265Z,1.92
2023-02-27T18:21:25.167Z,1.93
2023-02-27T18:23:54.882Z,1.94
2023-02-27T18:26:30.443Z,1.96
2023-02-27T18:29:07.093Z,1.97
2023-02-27T18:32:13.911Z,1.99
2023-02-27T18:45:03.631Z,1.90
2023-02-27T18:53:31.990Z,1.81
2023-02-27T18:57:04.820Z,1.80
2023-02-27T19:20:07.044Z,3.43
2023-02-27T19:24:25.005Z,2.90
2023-02-27T20:40:03.650Z,1.59
2023-02-27T20:42:34.069Z,1.56
2023-02-27T20:49:49.576Z,1.49
2023-02-27T20:53:27.297Z,1.46
2023-02-27T21:01:13.433Z,1.43
2023-02-27T21:35:36.030Z,1.42
2023-02-27T21:39:07.321Z,1.43
2023-02-27T21:43:11.125Z,1.43
2023-02-27T22:50:33.702Z,2.75
2023-02-27T23:29:03.769Z,1.15
2023-02-27T23:33:02.363Z,1.11
2023-02-27T23:41:10.086Z,1.07
2023-02-27T23:45:13.722Z,1.01
